createdAt,value
2017-10-31T00:00:06.050Z,0.00
2017-10-31T00:01:05.959Z,0.00
2017-10-31T00:02:05.883Z,0.00
2017-10-31T00:03:05.794Z,0.00
2017-10-31T00:04:05.696Z,0.00
2017-10-31T00:05:05.638Z,0.00
2017-10-31T00:06:05.544Z,0.00
2017-10-31T00:07:05.438Z,0.00
2017-10-31T00:08:05.354Z,0.00
2017-10-31T00:09:05.296Z,0.00
2017-10-31T00:10:05.192Z,0.00
2017-10-31T00:11:05.113Z,0.00
2017-10-31T00:12:05.012Z,0.00
2017-10-31T00:13:04.920Z,0.00
2017-10-31T00:14:04.848Z,0.00
2017-10-31T00:15:04.748Z,0.00
2017-10-31T00:16:04.687Z,0.00
2017-10-31T00:17:04.583Z,0.00
2017-10-31T00:18:04.520Z,0.00
2017-10-31T00:19:04.436Z,0.00
2017-10-31T00:20:04.326Z,0.00
2017-10-31T00:21:04.244Z,0.00
2017-10-31T00:22:04.147Z,0.00
2017-10-31T00:23:04.058Z,0.00
2017-10-31T00:24:03.979Z,0.00
2017-10-31T00:25:03.899Z,0.00
2017-10-31T00:26:03.872Z,0.00
2017-10-31T00:27:03.733Z,0.00
2017-10-31T00:28:03.632Z,0.00
2017-10-31T00:29:03.554Z,0.00
2017-10-31T00:30:03.455Z,0.00
2017-10-31T00:31:03.397Z,0.00
2017-10-31T00:32:03.295Z,0.00
2017-10-31T00:33:03.200Z,0.00
2017-10-31T00:34:03.110Z,0.00
2017-10-31T00:35:03.029Z,0.00
2017-10-31T00:36:02.945Z,0.00
2017-10-31T00:37:02.847Z,0.00
2017-10-31T00:38:02.763Z,0.00
2017-10-31T00:39:02.705Z,0.00
2017-10-31T00:40:02.596Z,0.00
2017-10-31T00:41:02.502Z,0.00
2017-10-31T00:42:02.433Z,0.00
2017-10-31T00:43:02.339Z,0.00
2017-10-31T00:44:02.247Z,0.00
2017-10-31T00:45:02.181Z,0.00
2017-10-31T00:46:02.078Z,0.00
2017-10-31T00:47:02.000Z,0.00
2017-10-31T00:48:01.905Z,0.00
2017-10-31T00:49:01.821Z,0.00
2017-10-31T00:50:01.728Z,0.00
2017-10-31T00:51:01.646Z,0.00
2017-10-31T00:52:01.557Z,0.00
2017-10-31T00:53:01.475Z,0.00
2017-10-31T00:54:01.384Z,0.00
2017-10-31T00:55:01.300Z,0.00
2017-10-31T00:56:01.436Z,0.00
2017-10-31T00:57:01.127Z,0.00
2017-10-31T00:58:01.038Z,0.00
2017-10-31T00:59:00.958Z,0.00
2017-10-31T01:00:00.867Z,0.00
2017-10-31T01:01:00.779Z,0.00
2017-10-31T01:02:00.691Z,0.00
2017-10-31T01:03:00.609Z,0.00
2017-10-31T01:04:00.521Z,0.00
2017-10-31T01:05:00.441Z,0.00
2017-10-31T01:06:00.360Z,0.00
2017-10-31T01:07:00.276Z,0.00
2017-10-31T01:08:00.182Z,0.00
2017-10-31T01:09:00.096Z,0.00
2017-10-31T01:10:00.004Z,0.00
2017-10-31T01:10:59.925Z,0.00
2017-10-31T01:11:59.837Z,0.00
2017-10-31T01:12:59.757Z,0.00
2017-10-31T01:13:59.658Z,0.00
2017-10-31T01:14:59.573Z,0.00
2017-10-31T01:15:59.483Z,0.00
2017-10-31T01:16:59.399Z,0.00
2017-10-31T01:17:59.310Z,0.00
2017-10-31T01:18:59.225Z,0.00
2017-10-31T01:19:59.138Z,0.00
2017-10-31T01:20:59.045Z,0.00
2017-10-31T01:21:58.964Z,0.00
2017-10-31T01:22:58.884Z,0.00
2017-10-31T01:23:58.798Z,0.00
2017-10-31T01:24:58.710Z,0.00
2017-10-31T01:25:58.620Z,0.00
2017-10-31T01:26:58.527Z,0.00
2017-10-31T01:27:58.453Z,0.00
2017-10-31T01:28:58.372Z,0.00
2017-10-31T01:29:58.277Z,0.00
2017-10-31T01:30:58.179Z,0.00
2017-10-31T01:31:58.097Z,0.00
2017-10-31T01:32:58.011Z,0.00
2017-10-31T01:33:57.927Z,0.00
2017-10-31T01:34:57.853Z,0.00
2017-10-31T01:35:57.779Z,0.00
2017-10-31T01:36:57.666Z,0.00
2017-10-31T01:37:57.576Z,0.00
2017-10-31T01:38:57.494Z,0.00
2017-10-31T01:39:57.405Z,0.00
2017-10-31T01:40:57.373Z,0.00
2017-10-31T01:41:57.250Z,0.00
2017-10-31T01:42:57.139Z,0.00
2017-10-31T01:43:57.057Z,0.00
2017-10-31T01:44:56.971Z,0.00
2017-10-31T01:45:56.891Z,0.00
2017-10-31T01:46:56.799Z,0.00
2017-10-31T01:47:56.713Z,0.00
2017-10-31T01:48:56.625Z,0.00
2017-10-31T01:49:56.542Z,0.00
2017-10-31T01:50:56.476Z,0.00
2017-10-31T01:51:56.374Z,0.00
2017-10-31T01:52:56.279Z,0.00
2017-10-31T01:53:56.199Z,0.00
2017-10-31T01:54:56.117Z,0.00
2017-10-31T01:55:56.018Z,0.00
2017-10-31T01:56:55.955Z,0.00
2017-10-31T01:57:55.864Z,0.00
2017-10-31T01:58:55.755Z,0.00
2017-10-31T01:59:55.673Z,0.00
2017-10-31T02:00:55.592Z,0.00
2017-10-31T02:01:55.500Z,0.00
2017-10-31T02:02:55.412Z,0.00
2017-10-31T02:03:55.349Z,0.00
2017-10-31T02:04:55.234Z,0.00
2017-10-31T02:05:55.146Z,0.00
2017-10-31T02:06:55.063Z,0.00
2017-10-31T02:07:54.978Z,0.00
2017-10-31T02:08:54.887Z,0.00
2017-10-31T02:09:54.826Z,0.00
2017-10-31T02:10:54.713Z,0.00
2017-10-31T02:11:54.627Z,0.00
2017-10-31T02:12:54.538Z,0.00
2017-10-31T02:13:54.452Z,0.00
2017-10-31T02:14:54.371Z,0.00
2017-10-31T02:15:54.281Z,0.00
2017-10-31T02:16:54.206Z,0.00
2017-10-31T02:17:54.107Z,0.00
2017-10-31T02:18:54.014Z,0.00
2017-10-31T02:19:53.952Z,0.00
2017-10-31T02:20:53.843Z,0.00
2017-10-31T02:21:53.758Z,0.00
2017-10-31T02:22:53.675Z,0.00
2017-10-31T02:23:53.583Z,0.00
2017-10-31T02:24:53.493Z,0.00
2017-10-31T02:25:53.417Z,0.00
2017-10-31T02:26:53.320Z,0.00
2017-10-31T02:27:53.231Z,0.00
2017-10-31T02:28:53.145Z,0.00
2017-10-31T02:29:53.057Z,0.00
2017-10-31T02:30:52.973Z,0.00
2017-10-31T02:31:52.913Z,0.00
2017-10-31T02:32:52.796Z,0.00
2017-10-31T02:33:52.718Z,0.00
2017-10-31T02:34:52.624Z,0.00
2017-10-31T02:35:52.545Z,0.00
2017-10-31T02:36:52.456Z,0.00
2017-10-31T02:37:52.361Z,0.00
2017-10-31T02:38:52.273Z,0.00
2017-10-31T02:39:52.199Z,0.00
2017-10-31T02:40:52.101Z,0.00
2017-10-31T02:41:52.019Z,0.00
2017-10-31T02:42:51.931Z,0.00
2017-10-31T02:43:51.856Z,0.00
2017-10-31T02:44:51.775Z,0.00
2017-10-31T02:45:51.693Z,0.00
2017-10-31T02:46:51.582Z,0.00
2017-10-31T02:47:51.490Z,0.00
2017-10-31T02:48:51.400Z,0.00
2017-10-31T02:49:51.318Z,0.00
2017-10-31T02:50:51.232Z,0.00
2017-10-31T02:51:51.143Z,0.00
2017-10-31T02:52:51.051Z,0.00
2017-10-31T02:53:50.966Z,0.00
2017-10-31T02:54:50.884Z,0.00
2017-10-31T02:55:50.802Z,0.00
2017-10-31T02:56:50.725Z,0.00
2017-10-31T02:57:50.631Z,0.00
2017-10-31T02:58:50.540Z,0.00
2017-10-31T02:59:50.451Z,0.00
2017-10-31T03:00:50.360Z,0.00
2017-10-31T03:01:50.272Z,0.00
2017-10-31T03:02:50.183Z,0.00
2017-10-31T03:03:50.097Z,0.00
2017-10-31T03:04:50.004Z,0.00
2017-10-31T03:05:49.927Z,0.00
2017-10-31T03:06:49.841Z,0.00
2017-10-31T03:07:49.744Z,0.00
2017-10-31T03:08:49.671Z,0.00
2017-10-31T03:09:49.581Z,0.00
2017-10-31T03:10:49.484Z,0.00
2017-10-31T03:11:49.403Z,0.00
2017-10-31T03:12:49.311Z,0.00
2017-10-31T03:13:49.232Z,0.00
2017-10-31T03:14:49.139Z,0.00
2017-10-31T03:15:49.259Z,0.00
2017-10-31T03:16:48.960Z,0.00
2017-10-31T03:17:48.875Z,0.00
2017-10-31T03:18:48.788Z,0.00
2017-10-31T03:19:48.698Z,0.00
2017-10-31T03:20:48.623Z,0.00
2017-10-31T03:21:48.527Z,0.00
2017-10-31T03:22:48.456Z,0.00
2017-10-31T03:23:48.353Z,0.00
2017-10-31T03:24:48.274Z,0.00
2017-10-31T03:25:48.177Z,0.00
2017-10-31T03:26:48.117Z,0.00
2017-10-31T03:27:48.008Z,0.00
2017-10-31T03:28:47.921Z,0.00
2017-10-31T03:29:47.825Z,0.00
2017-10-31T03:30:47.740Z,0.00
2017-10-31T03:31:47.651Z,0.00
2017-10-31T03:32:47.575Z,0.00
2017-10-31T03:33:47.486Z,0.00
2017-10-31T03:34:47.427Z,0.00
2017-10-31T03:35:47.300Z,0.00
2017-10-31T03:36:47.216Z,0.00
2017-10-31T03:37:47.132Z,0.00
2017-10-31T03:38:47.037Z,0.00
2017-10-31T03:39:46.954Z,0.00
2017-10-31T03:40:46.887Z,0.00
2017-10-31T03:41:46.793Z,0.00
2017-10-31T03:42:46.697Z,0.00
2017-10-31T03:43:46.607Z,0.00
2017-10-31T03:44:46.523Z,0.00
2017-10-31T03:45:46.428Z,0.00
2017-10-31T03:46:46.348Z,0.00
2017-10-31T03:47:46.253Z,0.00
2017-10-31T03:48:46.168Z,0.00
2017-10-31T03:49:46.080Z,0.00
2017-10-31T03:50:45.992Z,0.00
2017-10-31T03:51:45.907Z,0.00
2017-10-31T03:52:45.812Z,0.00
2017-10-31T03:53:45.726Z,0.00
2017-10-31T03:54:45.647Z,0.00
2017-10-31T03:55:45.555Z,0.00
2017-10-31T03:56:45.485Z,0.00
2017-10-31T03:57:45.380Z,0.00
2017-10-31T03:58:45.314Z,0.00
2017-10-31T03:59:45.203Z,0.00
2017-10-31T04:00:45.125Z,0.00
2017-10-31T04:01:45.035Z,0.00
2017-10-31T04:02:44.952Z,0.00
2017-10-31T04:03:44.853Z,0.00
2017-10-31T04:04:44.764Z,0.00
2017-10-31T04:05:44.684Z,0.00
2017-10-31T04:06:44.600Z,0.00
2017-10-31T04:07:44.516Z,0.00
2017-10-31T04:08:44.412Z,0.00
2017-10-31T04:09:44.332Z,0.00
2017-10-31T04:10:44.247Z,0.00
2017-10-31T04:11:44.164Z,0.00
2017-10-31T04:12:44.069Z,0.00
2017-10-31T04:13:43.979Z,0.00
2017-10-31T04:14:43.893Z,0.00
2017-10-31T04:15:43.801Z,0.00
2017-10-31T04:16:43.721Z,0.00
2017-10-31T04:17:43.631Z,0.00
2017-10-31T04:18:43.543Z,0.00
2017-10-31T04:19:43.463Z,0.00
2017-10-31T04:20:43.368Z,0.00
2017-10-31T04:21:43.278Z,0.00
2017-10-31T04:22:43.203Z,0.00
2017-10-31T04:23:43.112Z,0.00
2017-10-31T04:24:43.018Z,0.00
2017-10-31T04:25:42.932Z,0.00
2017-10-31T04:26:42.855Z,0.00
2017-10-31T04:27:42.758Z,0.00
2017-10-31T04:28:42.680Z,0.00
2017-10-31T04:29:42.581Z,0.00
2017-10-31T04:30:42.500Z,0.00
2017-10-31T04:31:42.401Z,0.00
2017-10-31T04:32:42.319Z,0.00
2017-10-31T04:33:42.229Z,0.00
2017-10-31T04:34:42.139Z,0.00
2017-10-31T04:35:42.059Z,0.00
2017-10-31T04:36:41.965Z,0.00
2017-10-31T04:37:41.883Z,0.00
2017-10-31T04:38:41.793Z,0.00
2017-10-31T04:39:41.698Z,0.00
2017-10-31T04:40:41.615Z,0.00
2017-10-31T04:41:41.525Z,0.00
2017-10-31T04:42:41.440Z,0.00
2017-10-31T04:43:41.354Z,0.00
2017-10-31T04:44:41.266Z,0.00
2017-10-31T04:45:41.185Z,0.00
2017-10-31T04:46:41.091Z,0.00
2017-10-31T04:47:41.013Z,0.00
2017-10-31T04:48:40.921Z,0.00
2017-10-31T04:49:40.830Z,0.00
2017-10-31T04:50:40.742Z,0.00
2017-10-31T04:51:40.657Z,0.00
2017-10-31T04:52:40.574Z,0.00
2017-10-31T04:53:40.488Z,0.00
2017-10-31T04:54:40.385Z,0.00
2017-10-31T04:55:40.298Z,0.00
2017-10-31T04:56:40.205Z,0.00
2017-10-31T04:57:40.123Z,0.00
2017-10-31T04:58:40.035Z,0.00
2017-10-31T04:59:39.949Z,0.00
2017-10-31T05:00:39.856Z,0.00
2017-10-31T05:01:39.770Z,0.00
2017-10-31T05:02:39.689Z,0.00
2017-10-31T05:03:39.600Z,0.00
2017-10-31T05:04:39.511Z,0.00
2017-10-31T05:05:39.427Z,0.00
2017-10-31T05:06:39.333Z,0.00
2017-10-31T05:07:39.239Z,0.00
2017-10-31T05:08:39.156Z,0.00
2017-10-31T05:09:39.068Z,0.00
2017-10-31T05:10:38.981Z,0.00
2017-10-31T05:11:38.893Z,0.00
2017-10-31T05:12:38.802Z,0.00
2017-10-31T05:13:38.716Z,0.00
2017-10-31T05:14:38.629Z,0.00
2017-10-31T05:15:38.539Z,0.00
2017-10-31T05:16:38.452Z,0.00
2017-10-31T05:17:38.379Z,0.00
2017-10-31T05:18:38.283Z,0.00
2017-10-31T05:19:38.194Z,0.00
2017-10-31T05:20:38.100Z,0.00
2017-10-31T05:21:38.014Z,0.00
2017-10-31T05:22:37.925Z,0.00
2017-10-31T05:23:37.841Z,0.00
2017-10-31T05:24:37.753Z,0.00
2017-10-31T05:25:37.668Z,0.00
2017-10-31T05:26:37.589Z,0.00
2017-10-31T05:27:37.488Z,0.00
2017-10-31T05:28:37.402Z,0.00
2017-10-31T05:29:37.307Z,0.00
2017-10-31T05:30:37.231Z,0.00
2017-10-31T05:31:37.142Z,0.00
2017-10-31T05:32:37.047Z,0.00
2017-10-31T05:33:36.960Z,0.00
2017-10-31T05:34:36.874Z,0.00
2017-10-31T05:35:36.781Z,0.00
2017-10-31T05:36:36.695Z,0.00
2017-10-31T05:37:36.619Z,0.00
2017-10-31T05:38:36.538Z,0.00
2017-10-31T05:39:36.483Z,0.00
2017-10-31T05:40:36.358Z,0.00
2017-10-31T05:41:36.270Z,0.00
2017-10-31T05:42:36.175Z,0.00
2017-10-31T05:43:36.084Z,0.00
2017-10-31T05:44:35.998Z,0.00
2017-10-31T05:45:35.912Z,0.00
2017-10-31T05:46:35.815Z,0.00
2017-10-31T05:47:35.737Z,0.00
2017-10-31T05:48:35.650Z,0.00
2017-10-31T05:49:35.572Z,0.00
2017-10-31T05:50:35.504Z,0.00
2017-10-31T05:51:35.378Z,0.00
2017-10-31T05:52:35.285Z,0.00
2017-10-31T05:53:35.196Z,0.00
2017-10-31T05:54:35.133Z,0.00
2017-10-31T05:55:35.019Z,0.00
2017-10-31T05:56:34.927Z,0.00
2017-10-31T05:57:34.849Z,0.00
2017-10-31T05:58:34.783Z,0.00
2017-10-31T05:59:34.677Z,5.63
2017-10-31T06:00:34.575Z,5.63
2017-10-31T06:01:34.509Z,5.63
2017-10-31T06:02:34.403Z,5.63
2017-10-31T06:03:34.319Z,5.63
2017-10-31T06:04:34.229Z,5.63
2017-10-31T06:05:34.152Z,5.63
2017-10-31T06:06:34.060Z,11.25
2017-10-31T06:07:33.971Z,11.25
2017-10-31T06:08:33.879Z,11.25
2017-10-31T06:09:33.794Z,11.25
2017-10-31T06:10:33.709Z,16.88
2017-10-31T06:11:33.604Z,16.88
2017-10-31T06:12:33.517Z,16.88
2017-10-31T06:13:33.430Z,16.88
2017-10-31T06:14:33.340Z,22.50
2017-10-31T06:15:33.257Z,22.50
2017-10-31T06:16:33.177Z,28.13
2017-10-31T06:17:33.079Z,28.13
2017-10-31T06:18:33.012Z,28.13
2017-10-31T06:19:32.911Z,33.75
2017-10-31T06:20:32.822Z,33.75
2017-10-31T06:21:32.722Z,39.38
2017-10-31T06:22:32.635Z,39.38
2017-10-31T06:23:32.551Z,39.38
2017-10-31T06:24:32.471Z,45.00
2017-10-31T06:25:32.372Z,50.63
2017-10-31T06:26:32.327Z,50.63
2017-10-31T06:27:32.197Z,56.25
2017-10-31T06:28:32.127Z,61.88
2017-10-31T06:29:32.019Z,61.88
2017-10-31T06:30:31.934Z,67.50
2017-10-31T06:31:31.845Z,73.13
2017-10-31T06:32:31.761Z,73.13
2017-10-31T06:33:31.684Z,78.75
2017-10-31T06:34:31.584Z,78.75
2017-10-31T06:35:31.512Z,84.38
2017-10-31T06:36:31.396Z,90.00
2017-10-31T06:37:31.318Z,90.00
2017-10-31T06:38:31.221Z,95.63
2017-10-31T06:39:31.140Z,101.25
2017-10-31T06:40:31.054Z,106.88
2017-10-31T06:41:30.984Z,118.13
2017-10-31T06:42:30.881Z,135.00
2017-10-31T06:43:30.798Z,140.63
2017-10-31T06:44:30.699Z,135.00
2017-10-31T06:45:30.609Z,135.00
2017-10-31T06:46:30.552Z,140.63
2017-10-31T06:47:30.437Z,168.75
2017-10-31T06:48:30.352Z,180.00
2017-10-31T06:49:30.258Z,180.00
2017-10-31T06:50:30.168Z,168.75
2017-10-31T06:51:30.077Z,174.38
2017-10-31T06:52:29.999Z,191.25
2017-10-31T06:53:29.947Z,202.50
2017-10-31T06:54:29.826Z,230.63
2017-10-31T06:55:29.758Z,286.88
2017-10-31T06:56:29.639Z,236.25
2017-10-31T06:57:29.550Z,202.50
2017-10-31T06:58:29.479Z,241.88
2017-10-31T06:59:29.381Z,264.38
2017-10-31T07:00:29.290Z,286.88
2017-10-31T07:01:29.216Z,270.00
2017-10-31T07:02:29.118Z,247.50
2017-10-31T07:03:29.048Z,258.75
2017-10-31T07:04:28.936Z,275.63
2017-10-31T07:05:28.849Z,303.75
2017-10-31T07:06:28.762Z,354.38
2017-10-31T07:07:28.689Z,371.25
2017-10-31T07:08:28.594Z,348.75
2017-10-31T07:09:28.501Z,292.50
2017-10-31T07:10:28.415Z,281.25
2017-10-31T07:11:28.332Z,309.38
2017-10-31T07:12:28.252Z,320.63
2017-10-31T07:13:28.155Z,326.25
2017-10-31T07:14:28.078Z,348.75
2017-10-31T07:15:27.982Z,405.00
2017-10-31T07:16:27.901Z,421.88
2017-10-31T07:17:27.804Z,421.88
2017-10-31T07:18:27.711Z,500.63
2017-10-31T07:19:27.635Z,562.50
2017-10-31T07:20:27.545Z,585.00
2017-10-31T07:21:27.494Z,523.13
2017-10-31T07:22:27.377Z,523.13
2017-10-31T07:23:27.285Z,641.25
2017-10-31T07:24:27.195Z,810.00
2017-10-31T07:25:27.117Z,1108.13
2017-10-31T07:26:27.018Z,1591.88
2017-10-31T07:27:26.937Z,1906.88
2017-10-31T07:28:26.853Z,1940.63
2017-10-31T07:29:26.766Z,1985.63
2017-10-31T07:30:26.689Z,2019.38
2017-10-31T07:31:26.598Z,2030.63
2017-10-31T07:32:26.511Z,1355.63
2017-10-31T07:33:26.427Z,984.38
2017-10-31T07:34:26.353Z,1665.00
2017-10-31T07:35:26.261Z,2075.63
2017-10-31T07:36:26.182Z,2182.50
2017-10-31T07:37:26.093Z,2221.88
2017-10-31T07:38:26.007Z,2261.25
2017-10-31T07:39:25.924Z,2295.00
2017-10-31T07:40:25.836Z,2328.75
2017-10-31T07:41:25.760Z,2373.75
2017-10-31T07:42:25.687Z,2396.25
2017-10-31T07:43:25.598Z,2435.63
2017-10-31T07:44:25.518Z,2463.75
2017-10-31T07:45:25.433Z,2486.25
2017-10-31T07:46:25.350Z,2520.00
2017-10-31T07:47:25.267Z,2553.75
2017-10-31T07:48:25.183Z,2581.88
2017-10-31T07:49:25.116Z,2621.25
2017-10-31T07:50:25.034Z,2638.13
2017-10-31T07:51:24.943Z,2671.88
2017-10-31T07:52:24.864Z,2716.88
2017-10-31T07:53:24.781Z,2778.75
2017-10-31T07:54:24.702Z,2801.25
2017-10-31T07:55:24.618Z,2840.63
2017-10-31T07:56:24.546Z,2880.00
2017-10-31T07:57:24.462Z,2896.88
2017-10-31T07:58:24.383Z,2936.25
2017-10-31T07:59:24.308Z,2998.13
2017-10-31T08:00:24.224Z,2525.63
2017-10-31T08:01:24.137Z,2688.75
2017-10-31T08:02:24.078Z,3088.13
2017-10-31T08:03:23.986Z,3093.75
2017-10-31T08:04:23.902Z,3116.25
2017-10-31T08:05:23.827Z,3150.00
2017-10-31T08:06:23.738Z,3183.75
2017-10-31T08:07:23.669Z,3200.63
2017-10-31T08:08:23.593Z,3217.50
2017-10-31T08:09:23.509Z,3228.75
2017-10-31T08:10:23.425Z,2576.25
2017-10-31T08:11:23.354Z,2221.88
2017-10-31T08:12:23.263Z,1845.00
2017-10-31T08:13:23.194Z,2013.75
2017-10-31T08:14:23.104Z,1344.38
2017-10-31T08:15:23.039Z,1310.63
2017-10-31T08:16:22.953Z,1693.13
2017-10-31T08:17:22.870Z,2756.25
2017-10-31T08:18:22.787Z,3183.75
2017-10-31T08:19:22.708Z,3386.25
2017-10-31T08:20:22.628Z,3487.50
2017-10-31T08:21:22.550Z,3549.38
2017-10-31T08:22:22.481Z,3549.38
2017-10-31T08:23:22.397Z,3133.13
2017-10-31T08:24:22.354Z,2851.88
2017-10-31T08:25:22.234Z,2491.88
2017-10-31T08:26:22.147Z,3476.25
2017-10-31T08:27:22.087Z,3661.88
2017-10-31T08:28:21.992Z,3678.75
2017-10-31T08:29:21.922Z,3695.63
2017-10-31T08:30:21.847Z,3605.63
2017-10-31T08:31:21.759Z,3684.38
2017-10-31T08:32:21.685Z,3695.63
2017-10-31T08:33:21.604Z,3735.00
2017-10-31T08:34:21.535Z,3729.38
2017-10-31T08:35:21.455Z,3735.00
2017-10-31T08:36:21.378Z,3796.88
2017-10-31T08:37:21.293Z,3757.50
2017-10-31T08:38:21.212Z,3768.75
2017-10-31T08:39:21.159Z,3780.00
2017-10-31T08:40:21.067Z,3757.50
2017-10-31T08:41:20.987Z,3763.13
2017-10-31T08:42:20.909Z,3780.00
2017-10-31T08:43:20.827Z,3841.88
2017-10-31T08:44:20.815Z,3903.75
2017-10-31T08:45:20.702Z,3903.75
2017-10-31T08:46:20.605Z,3926.25
2017-10-31T08:47:20.522Z,3954.38
2017-10-31T08:48:20.454Z,3954.38
2017-10-31T08:49:20.374Z,3971.25
2017-10-31T08:50:20.289Z,3988.13
2017-10-31T08:51:20.237Z,3954.38
2017-10-31T08:52:20.143Z,3982.50
2017-10-31T08:53:20.067Z,4021.88
2017-10-31T08:54:19.995Z,4050.00
2017-10-31T08:55:19.928Z,4083.75
2017-10-31T08:56:19.855Z,4033.13
2017-10-31T08:57:19.768Z,3948.75
2017-10-31T08:58:19.689Z,4123.13
2017-10-31T08:59:19.616Z,4128.75
2017-10-31T09:00:19.560Z,4128.75
2017-10-31T09:01:19.469Z,4145.63
2017-10-31T09:02:19.388Z,4140.00
2017-10-31T09:03:19.366Z,4134.38
2017-10-31T09:04:19.254Z,4095.00
2017-10-31T09:05:19.160Z,4095.00
2017-10-31T09:06:19.095Z,4083.75
2017-10-31T09:07:19.010Z,4100.63
2017-10-31T09:08:18.943Z,4095.00
2017-10-31T09:09:18.871Z,4095.00
2017-10-31T09:10:18.802Z,4128.75
2017-10-31T09:11:18.718Z,4128.75
2017-10-31T09:12:18.641Z,4196.25
2017-10-31T09:13:18.568Z,4162.50
2017-10-31T09:14:18.495Z,4201.88
2017-10-31T09:15:18.417Z,4100.63
2017-10-31T09:16:18.349Z,4151.25
2017-10-31T09:17:18.274Z,4185.00
2017-10-31T09:18:18.200Z,4207.50
2017-10-31T09:19:18.143Z,4201.88
2017-10-31T09:20:18.072Z,4190.63
2017-10-31T09:21:17.972Z,4190.63
2017-10-31T09:22:17.910Z,4207.50
2017-10-31T09:23:17.832Z,4230.00
2017-10-31T09:24:17.762Z,4258.13
2017-10-31T09:25:17.684Z,4230.00
2017-10-31T09:26:17.613Z,4258.13
2017-10-31T09:27:17.542Z,4263.75
2017-10-31T09:28:17.477Z,4286.25
2017-10-31T09:29:17.393Z,4320.00
2017-10-31T09:30:17.356Z,4314.38
2017-10-31T09:31:17.260Z,3026.25
2017-10-31T09:32:17.173Z,4376.25
2017-10-31T09:33:17.130Z,4325.63
2017-10-31T09:34:17.076Z,4280.63
2017-10-31T09:35:16.958Z,4280.63
2017-10-31T09:36:16.885Z,4320.00
2017-10-31T09:37:16.815Z,4308.75
2017-10-31T09:38:16.739Z,4303.13
2017-10-31T09:39:16.695Z,4010.63
2017-10-31T09:40:16.596Z,4280.63
2017-10-31T09:41:16.519Z,4275.00
2017-10-31T09:42:16.451Z,4252.50
2017-10-31T09:43:16.390Z,4246.88
2017-10-31T09:44:16.312Z,4258.13
2017-10-31T09:45:16.238Z,4252.50
2017-10-31T09:46:16.171Z,4275.00
2017-10-31T09:47:16.096Z,4263.75
2017-10-31T09:48:16.042Z,4258.13
2017-10-31T09:49:15.946Z,4252.50
2017-10-31T09:50:15.876Z,4263.75
2017-10-31T09:51:15.808Z,4275.00
2017-10-31T09:52:15.750Z,4291.88
2017-10-31T09:53:15.670Z,4308.75
2017-10-31T09:54:15.595Z,4331.25
2017-10-31T09:55:15.522Z,4331.25
2017-10-31T09:56:15.447Z,4348.13
2017-10-31T09:57:15.378Z,4359.38
2017-10-31T09:58:15.306Z,4460.63
2017-10-31T09:59:15.259Z,3493.13
2017-10-31T10:00:15.168Z,1946.25
2017-10-31T10:01:15.101Z,2255.63
2017-10-31T10:02:15.026Z,3577.50
2017-10-31T10:03:14.979Z,4230.00
2017-10-31T10:04:14.885Z,4460.63
2017-10-31T10:05:14.820Z,4483.13
2017-10-31T10:06:14.742Z,4494.38
2017-10-31T10:07:14.693Z,4578.75
2017-10-31T10:08:14.607Z,3853.13
2017-10-31T10:09:14.528Z,3622.50
2017-10-31T10:10:14.460Z,2480.63
2017-10-31T10:11:14.419Z,2227.50
2017-10-31T10:12:14.330Z,2761.88
2017-10-31T10:13:14.253Z,1968.75
2017-10-31T10:14:14.173Z,1631.25
2017-10-31T10:15:14.115Z,1181.25
2017-10-31T10:16:14.044Z,1096.88
2017-10-31T10:17:13.965Z,1125.00
2017-10-31T10:18:13.894Z,1046.25
2017-10-31T10:19:13.816Z,995.63
2017-10-31T10:20:13.764Z,911.25
2017-10-31T10:21:13.658Z,945.00
2017-10-31T10:22:13.590Z,995.63
2017-10-31T10:23:13.519Z,1080.00
2017-10-31T10:24:13.434Z,1231.88
2017-10-31T10:25:13.373Z,1035.00
2017-10-31T10:26:13.286Z,1029.38
2017-10-31T10:27:13.223Z,973.13
2017-10-31T10:28:13.129Z,961.88
2017-10-31T10:29:13.056Z,1018.13
2017-10-31T10:30:12.974Z,1012.50
2017-10-31T10:31:12.896Z,1035.00
2017-10-31T10:32:12.817Z,1091.25
2017-10-31T10:33:12.753Z,1355.63
2017-10-31T10:34:12.676Z,1800.00
2017-10-31T10:35:12.589Z,1215.00
2017-10-31T10:36:12.512Z,1108.13
2017-10-31T10:37:12.446Z,1125.00
2017-10-31T10:38:12.376Z,1237.50
2017-10-31T10:39:12.276Z,1237.50
2017-10-31T10:40:12.203Z,1653.75
2017-10-31T10:41:12.139Z,2638.13
2017-10-31T10:42:12.058Z,1788.75
2017-10-31T10:43:11.962Z,2812.50
2017-10-31T10:44:11.897Z,4387.50
2017-10-31T10:45:11.815Z,2311.88
2017-10-31T10:46:11.729Z,3386.25
2017-10-31T10:47:11.654Z,3960.00
2017-10-31T10:48:11.583Z,3571.88
2017-10-31T10:49:11.570Z,3549.38
2017-10-31T10:50:11.423Z,4044.38
2017-10-31T10:51:11.349Z,3999.38
2017-10-31T10:52:11.280Z,3313.13
2017-10-31T10:53:11.207Z,3780.00
2017-10-31T10:54:11.132Z,3943.13
2017-10-31T10:55:11.069Z,4038.75
2017-10-31T10:56:10.974Z,3915.00
2017-10-31T10:57:10.902Z,3915.00
2017-10-31T10:58:10.848Z,3920.63
2017-10-31T10:59:10.768Z,3920.63
2017-10-31T11:00:10.692Z,3521.25
2017-10-31T11:01:10.623Z,3493.13
2017-10-31T11:02:10.559Z,3645.00
2017-10-31T11:03:10.482Z,3588.75
2017-10-31T11:04:10.420Z,3780.00
2017-10-31T11:05:10.352Z,3633.75
2017-10-31T11:06:10.275Z,3836.25
2017-10-31T11:07:10.207Z,3847.50
2017-10-31T11:08:10.132Z,3841.88
2017-10-31T11:09:10.078Z,3532.50
2017-10-31T11:10:09.992Z,3808.13
2017-10-31T11:11:09.926Z,3780.00
2017-10-31T11:12:09.856Z,3768.75
2017-10-31T11:13:09.796Z,3735.00
2017-10-31T11:14:09.743Z,3723.75
2017-10-31T11:15:09.677Z,3678.75
2017-10-31T11:16:09.577Z,3729.38
2017-10-31T11:17:09.515Z,3684.38
2017-10-31T11:18:09.427Z,3695.63
2017-10-31T11:19:09.359Z,3678.75
2017-10-31T11:20:09.286Z,3695.63
2017-10-31T11:21:09.215Z,3915.00
2017-10-31T11:22:09.144Z,3965.63
2017-10-31T11:23:09.076Z,3909.38
2017-10-31T11:24:09.007Z,3898.13
2017-10-31T11:25:08.935Z,3909.38
2017-10-31T11:26:08.860Z,3870.00
2017-10-31T11:27:08.804Z,3892.50
2017-10-31T11:28:08.742Z,3864.38
2017-10-31T11:29:08.657Z,3841.88
2017-10-31T11:30:08.597Z,3763.13
2017-10-31T11:31:08.523Z,3729.38
2017-10-31T11:32:08.432Z,3746.25
2017-10-31T11:33:08.350Z,3751.88
2017-10-31T11:34:08.283Z,3690.00
2017-10-31T11:35:08.209Z,3628.13
2017-10-31T11:36:08.136Z,3583.13
2017-10-31T11:37:08.052Z,3571.88
2017-10-31T11:38:07.981Z,3408.75
2017-10-31T11:39:07.901Z,2019.38
2017-10-31T11:40:07.813Z,883.13
2017-10-31T11:41:07.749Z,871.88
2017-10-31T11:42:07.692Z,843.75
2017-10-31T11:43:07.599Z,832.50
2017-10-31T11:44:07.526Z,815.63
2017-10-31T11:45:07.439Z,798.75
2017-10-31T11:46:07.349Z,798.75
2017-10-31T11:47:07.313Z,793.13
2017-10-31T11:48:07.206Z,781.88
2017-10-31T11:49:07.125Z,776.25
2017-10-31T11:50:07.042Z,765.00
2017-10-31T11:51:06.973Z,748.13
2017-10-31T11:52:06.887Z,736.88
2017-10-31T11:53:06.808Z,720.00
2017-10-31T11:54:06.747Z,714.38
2017-10-31T11:55:06.661Z,691.88
2017-10-31T11:56:06.582Z,686.25
2017-10-31T11:57:06.505Z,680.63
2017-10-31T11:58:06.430Z,691.88
2017-10-31T11:59:06.342Z,669.38
2017-10-31T12:00:06.265Z,669.38
2017-10-31T12:01:06.187Z,663.75
2017-10-31T12:02:06.116Z,658.13
2017-10-31T12:03:06.057Z,652.50
2017-10-31T12:04:05.942Z,641.25
2017-10-31T12:05:05.879Z,624.38
2017-10-31T12:06:05.795Z,601.88
2017-10-31T12:07:05.744Z,590.63
2017-10-31T12:08:05.640Z,579.38
2017-10-31T12:09:05.553Z,573.75
2017-10-31T12:10:05.509Z,562.50
2017-10-31T12:11:05.457Z,556.88
2017-10-31T12:12:05.332Z,551.25
2017-10-31T12:13:05.240Z,540.00
2017-10-31T12:14:05.161Z,545.63
2017-10-31T12:15:05.089Z,534.38
2017-10-31T12:16:05.105Z,528.75
2017-10-31T12:17:04.911Z,523.13
2017-10-31T12:18:04.839Z,528.75
2017-10-31T12:19:04.771Z,500.63
2017-10-31T12:20:04.683Z,483.75
2017-10-31T12:21:04.602Z,495.00
2017-10-31T12:22:04.519Z,489.38
2017-10-31T12:23:04.491Z,483.75
2017-10-31T12:24:04.386Z,506.25
2017-10-31T12:25:04.357Z,500.63
2017-10-31T12:26:04.265Z,500.63
2017-10-31T12:27:04.143Z,495.00
2017-10-31T12:28:04.221Z,483.75
2017-10-31T12:29:03.952Z,489.38
2017-10-31T12:30:03.891Z,489.38
2017-10-31T12:31:03.813Z,489.38
2017-10-31T12:32:03.714Z,489.38
2017-10-31T12:33:03.637Z,483.75
2017-10-31T12:34:03.555Z,478.13
2017-10-31T12:35:03.482Z,472.50
2017-10-31T12:36:03.399Z,478.13
2017-10-31T12:37:03.324Z,450.00
2017-10-31T12:38:03.245Z,450.00
2017-10-31T12:39:03.180Z,427.50
2017-10-31T12:40:03.081Z,438.75
2017-10-31T12:41:03.005Z,438.75
2017-10-31T12:42:02.933Z,438.75
2017-10-31T12:43:02.880Z,405.00